createdAt,value
2023-05-23T00:02:19.879Z,100538.13
2023-05-23T00:04:46.197Z,100623.44
2023-05-23T00:07:12.453Z,100694.72
2023-05-23T00:09:38.747Z,100598.34
2023-05-23T00:12:05.162Z,100488.38
2023-05-23T00:14:31.409Z,100390.09
2023-05-23T00:16:57.692Z,100340.00
2023-05-23T00:19:23.962Z,100325.44
2023-05-23T00:21:50.336Z,100319.22
2023-05-23T00:24:16.768Z,100536.00
2023-05-23T00:26:43.023Z,100569.56
2023-05-23T00:29:09.265Z,100505.63
2023-05-23T00:31:35.620Z,100503.16
2023-05-23T00:34:01.937Z,100445.56
2023-05-23T00:36:28.220Z,100369.00
2023-05-23T00:38:54.485Z,100355.41
2023-05-23T00:41:20.764Z,100336.47
2023-05-23T00:43:47.126Z,100326.56
2023-05-23T00:46:13.408Z,100470.38
2023-05-23T00:48:39.690Z,100584.41
2023-05-23T00:51:05.968Z,100639.47
2023-05-23T00:53:32.215Z,100769.75
2023-05-23T00:55:58.469Z,100717.81
2023-05-23T00:58:24.740Z,100645.81
2023-05-23T01:00:51.003Z,100532.56
2023-05-23T01:03:17.376Z,100449.00
2023-05-23T01:05:44.331Z,100395.94
2023-05-23T01:08:10.568Z,100405.59
2023-05-23T01:10:36.855Z,100586.31
2023-05-23T01:13:09.796Z,100657.41
2023-05-23T01:15:39.277Z,100575.50
2023-05-23T01:18:14.029Z,100480.84
2023-05-23T01:20:41.665Z,100386.38
2023-05-23T01:23:23.247Z,100315.47
2023-05-23T01:26:08.381Z,100279.31
2023-05-23T01:28:37.966Z,100257.91
2023-05-23T01:31:04.320Z,100239.19
2023-05-23T01:33:30.569Z,100434.88
2023-05-23T01:35:56.838Z,100644.47
2023-05-23T01:38:23.079Z,100667.50
2023-05-23T01:40:49.352Z,100551.09
2023-05-23T01:43:15.616Z,100496.94
2023-05-23T01:45:42.103Z,100525.16
2023-05-23T01:48:08.639Z,100425.44
2023-05-23T01:50:34.904Z,100462.22
2023-05-23T01:53:01.164Z,100509.88
2023-05-23T01:55:27.462Z,100595.56
2023-05-23T01:57:54.793Z,100776.31
2023-05-23T02:00:21.101Z,100833.97
2023-05-23T02:02:47.485Z,100883.81
2023-05-23T02:05:13.840Z,100780.38
2023-05-23T02:07:40.116Z,100571.53
2023-05-23T02:10:08.039Z,100417.72
2023-05-23T02:12:34.290Z,100294.44
2023-05-23T02:15:00.543Z,100233.69
2023-05-23T02:17:26.863Z,100268.84
2023-05-23T02:19:53.200Z,100412.09
2023-05-23T02:22:22.682Z,100641.53
2023-05-23T02:24:49.400Z,100572.34
2023-05-23T02:27:15.668Z,100437.69
2023-05-23T02:29:41.960Z,100368.06
2023-05-23T02:32:08.217Z,100372.28
2023-05-23T02:34:34.451Z,100317.00
2023-05-23T02:37:00.732Z,100475.50
2023-05-23T02:39:27.182Z,100540.91
2023-05-23T02:41:53.443Z,100439.97
2023-05-23T02:44:19.705Z,100370.69
2023-05-23T02:46:46.089Z,100359.97
2023-05-23T02:49:12.439Z,100295.50
2023-05-23T02:51:38.686Z,100266.47
2023-05-23T02:54:04.937Z,100390.44
2023-05-23T02:56:31.211Z,100339.94
2023-05-23T02:58:57.469Z,100290.81
2023-05-23T03:01:23.740Z,100246.75
2023-05-23T03:03:50.208Z,100449.72
2023-05-23T03:06:16.542Z,100425.69
2023-05-23T03:08:43.052Z,100420.81
2023-05-23T03:11:09.460Z,100468.81
2023-05-23T03:13:35.906Z,100490.69
2023-05-23T03:16:02.339Z,100430.19
2023-05-23T03:18:28.761Z,100385.44
2023-05-23T03:20:55.131Z,100331.56
2023-05-23T03:23:21.492Z,100289.16
2023-05-23T03:25:48.854Z,100300.78
2023-05-23T03:28:15.209Z,100272.06
2023-05-23T03:30:41.587Z,100333.72
2023-05-23T03:33:07.991Z,100495.94
2023-05-23T03:35:34.393Z,100419.44
2023-05-23T03:38:00.758Z,100393.00
2023-05-23T03:40:27.130Z,100359.19
2023-05-23T03:43:05.744Z,100313.78
2023-05-23T03:45:32.329Z,100318.56
2023-05-23T03:47:59.103Z,100340.25
2023-05-23T03:50:25.539Z,100457.81
2023-05-23T03:52:51.966Z,100539.69
2023-05-23T03:55:18.331Z,100530.38
2023-05-23T03:57:44.715Z,100572.13
2023-05-23T04:00:11.299Z,100501.56
2023-05-23T04:02:37.927Z,100555.53
2023-05-23T04:05:04.578Z,100589.28
2023-05-23T04:07:30.962Z,100621.00
2023-05-23T04:09:57.330Z,100651.91
2023-05-23T04:12:23.702Z,100530.31
2023-05-23T04:14:50.065Z,100583.41
2023-05-23T04:17:16.441Z,100501.19
2023-05-23T04:19:42.844Z,100404.22
2023-05-23T04:22:09.194Z,100350.53
2023-05-23T04:24:35.471Z,100307.41
2023-05-23T04:27:01.744Z,100287.00
2023-05-23T04:29:27.991Z,100275.56
2023-05-23T04:31:54.269Z,100445.66
2023-05-23T04:34:20.515Z,100694.06
2023-05-23T04:36:46.775Z,100640.47
2023-05-23T04:39:13.031Z,100667.03
2023-05-23T04:41:39.376Z,100619.03
2023-05-23T04:44:05.689Z,100667.63
2023-05-23T04:46:31.982Z,100652.59
2023-05-23T04:48:58.256Z,100577.44
2023-05-23T04:51:24.858Z,100706.84
2023-05-23T04:53:51.213Z,100671.47
2023-05-23T04:56:23.158Z,100727.38
2023-05-23T04:58:49.401Z,100780.50
2023-05-23T05:01:15.816Z,100781.16
2023-05-23T05:03:42.283Z,100775.34
2023-05-23T05:06:08.589Z,100728.47
2023-05-23T05:08:34.893Z,100715.63
2023-05-23T05:11:01.177Z,100705.09
2023-05-23T05:13:27.483Z,100682.72
2023-05-23T05:15:53.762Z,100672.38
2023-05-23T05:18:20.037Z,100635.06
2023-05-23T05:20:46.388Z,100569.25
2023-05-23T05:23:13.939Z,100513.13
2023-05-23T05:25:40.639Z,100530.53
2023-05-23T05:28:07.012Z,100601.19
2023-05-23T05:30:33.430Z,100599.63
2023-05-23T05:32:59.767Z,100583.72
2023-05-23T05:35:26.042Z,100591.78
2023-05-23T05:37:52.296Z,100590.72
2023-05-23T05:40:18.566Z,100592.16
2023-05-23T05:42:44.815Z,100549.69
2023-05-23T05:45:11.140Z,100581.47
2023-05-23T05:47:37.429Z,100515.31
2023-05-23T05:50:03.796Z,100518.22
2023-05-23T05:52:30.090Z,100541.97
2023-05-23T05:54:56.354Z,100625.63
2023-05-23T05:57:22.628Z,100685.41
2023-05-23T05:59:48.925Z,100645.16
2023-05-23T06:05:11.046Z,100620.09
2023-05-23T06:07:37.440Z,100607.97
2023-05-23T06:10:03.794Z,100628.06
2023-05-23T06:12:30.074Z,100615.91
2023-05-23T06:14:56.745Z,100596.09
2023-05-23T06:17:23.040Z,100546.94
2023-05-23T06:19:49.295Z,100438.03
2023-05-23T06:22:15.649Z,100457.19
2023-05-23T06:24:41.893Z,100415.38
2023-05-23T06:27:08.149Z,100365.94
2023-05-23T06:29:34.399Z,100507.25
2023-05-23T06:32:00.658Z,100579.63
2023-05-23T06:34:26.932Z,100597.19
2023-05-23T06:36:53.204Z,100602.00
2023-05-23T06:39:19.454Z,100597.75
2023-05-23T06:41:46.414Z,100601.41
2023-05-23T06:44:12.672Z,100622.94
2023-05-23T06:46:40.433Z,100593.44
2023-05-23T06:49:14.704Z,100580.66
2023-05-23T06:51:41.742Z,100581.00
2023-05-23T06:54:08.092Z,100596.50
2023-05-23T06:56:34.338Z,100586.09
2023-05-23T06:59:00.589Z,100588.31
2023-05-23T07:01:26.886Z,100588.25
2023-05-23T07:03:53.177Z,100572.84
2023-05-23T07:06:19.428Z,100586.19
2023-05-23T07:08:45.689Z,100593.22
2023-05-23T07:11:11.992Z,100575.34
2023-05-23T07:13:38.267Z,100578.66
2023-05-23T07:16:04.605Z,100563.88
2023-05-23T07:18:30.872Z,100544.31
2023-05-23T07:20:57.128Z,100562.22
2023-05-23T07:23:23.440Z,100548.63
2023-05-23T07:26:01.161Z,100561.34
2023-05-23T07:28:28.545Z,100563.31
2023-05-23T07:30:54.827Z,100548.84
2023-05-23T07:39:00.756Z,100499.81
2023-05-23T07:41:32.887Z,100504.75
2023-05-23T07:44:01.652Z,100503.91
2023-05-23T07:46:27.980Z,100465.41
2023-05-23T07:48:54.276Z,100503.19
2023-05-23T07:51:20.558Z,100499.03
2023-05-23T07:53:47.032Z,100495.72
2023-05-23T07:56:21.811Z,100496.00
2023-05-23T07:58:48.142Z,100538.97
2023-05-23T08:01:14.507Z,100555.88
2023-05-23T08:03:40.738Z,100566.94
2023-05-23T08:06:14.466Z,100569.16
2023-05-23T08:08:45.016Z,100575.59
2023-05-23T08:11:11.295Z,100569.47
2023-05-23T08:13:37.566Z,100557.25
2023-05-23T08:16:03.897Z,100567.91
2023-05-23T08:18:30.218Z,100565.63
2023-05-23T08:20:56.513Z,100552.28
2023-05-23T08:23:22.800Z,100538.94
2023-05-23T08:25:49.083Z,100504.78
2023-05-23T08:28:18.454Z,100509.59
2023-05-23T08:30:44.733Z,100513.09
2023-05-23T08:33:11.101Z,100511.19
2023-05-23T08:35:37.440Z,100526.31
2023-05-23T08:38:05.812Z,100518.09
2023-05-23T08:40:32.095Z,100488.28
2023-05-23T08:42:58.377Z,100475.47
2023-05-23T08:45:24.700Z,100486.41
2023-05-23T08:47:51.363Z,100475.16
2023-05-23T08:50:21.014Z,100509.78
2023-05-23T08:52:58.580Z,100491.28
2023-05-23T08:55:25.189Z,100495.47
2023-05-23T08:57:52.589Z,100521.69
2023-05-23T09:00:18.919Z,100440.91
2023-05-23T09:02:45.295Z,100406.97
2023-05-23T09:05:11.958Z,100413.22
2023-05-23T09:07:39.063Z,100389.88
2023-05-23T09:10:05.899Z,100359.34
2023-05-23T09:12:32.171Z,100418.13
2023-05-23T09:14:58.515Z,100404.31
2023-05-23T09:17:24.821Z,100347.19
2023-05-23T09:19:51.120Z,100315.56
2023-05-23T09:22:17.696Z,100318.63
2023-05-23T09:24:43.943Z,100316.78
2023-05-23T09:27:10.189Z,100306.34
2023-05-23T09:29:37.890Z,100255.81
2023-05-23T09:32:10.694Z,100286.41
2023-05-23T09:34:46.129Z,100344.53
2023-05-23T09:37:16.461Z,100317.59
2023-05-23T09:39:45.900Z,100255.88
2023-05-23T09:42:12.183Z,100279.78
2023-05-23T09:44:41.155Z,100283.31
2023-05-23T09:47:07.546Z,100283.47
2023-05-23T09:49:33.814Z,100365.84
2023-05-23T09:52:00.214Z,100371.44
2023-05-23T09:54:26.457Z,100342.84
2023-05-23T09:56:52.947Z,100389.25
2023-05-23T09:59:19.865Z,100393.28
2023-05-23T10:01:46.180Z,100318.38
2023-05-23T10:04:12.561Z,100335.03
2023-05-23T10:06:41.139Z,100267.38
2023-05-23T10:09:07.404Z,100176.53
2023-05-23T10:11:33.637Z,100132.31
2023-05-23T10:14:04.136Z,100119.88
2023-05-23T10:16:41.014Z,100120.22
2023-05-23T10:19:10.860Z,100085.53
2023-05-23T10:21:46.060Z,100098.84
2023-05-23T10:24:12.870Z,100075.06
2023-05-23T10:26:46.591Z,100110.44
2023-05-23T10:29:12.856Z,100179.63
2023-05-23T10:31:39.174Z,100230.34
2023-05-23T10:34:10.264Z,100251.91
2023-05-23T10:36:44.861Z,100318.81
2023-05-23T10:39:20.131Z,100402.34
2023-05-23T10:41:51.641Z,100493.84
2023-05-23T10:44:25.457Z,100525.69
2023-05-23T10:46:52.433Z,100527.63
2023-05-23T10:49:18.798Z,100590.22
2023-05-23T10:51:48.586Z,100621.91
2023-05-23T10:54:15.916Z,100701.13
2023-05-23T10:56:42.175Z,100705.84
2023-05-23T10:59:08.430Z,100726.38
2023-05-23T11:01:38.855Z,100725.34
2023-05-23T11:04:05.230Z,100723.25
2023-05-23T11:06:41.358Z,100708.59
2023-05-23T11:09:10.584Z,100698.09
2023-05-23T11:11:52.364Z,100716.56
2023-05-23T11:14:18.800Z,100737.13
2023-05-23T11:16:45.110Z,100751.91
2023-05-23T11:19:20.895Z,100743.50
2023-05-23T11:22:10.629Z,100735.41
2023-05-23T11:24:52.505Z,100760.41
2023-05-23T11:27:27.646Z,100748.09
2023-05-23T11:30:00.964Z,100769.63
2023-05-23T11:32:27.928Z,100784.31
2023-05-23T11:34:54.284Z,100797.97
2023-05-23T11:37:20.586Z,100792.22
2023-05-23T11:39:46.841Z,100783.53
2023-05-23T11:42:13.532Z,100789.34
2023-05-23T11:44:39.837Z,100805.09
2023-05-23T11:47:06.318Z,100805.88
2023-05-23T11:49:34.654Z,100794.31
2023-05-23T11:52:01.704Z,100798.53
2023-05-23T11:54:28.031Z,100808.47
2023-05-23T11:56:54.670Z,100811.38
2023-05-23T11:59:24.140Z,100799.31
2023-05-23T12:01:50.425Z,100808.22
2023-05-23T12:04:16.773Z,100802.13
2023-05-23T12:06:43.932Z,100808.97
2023-05-23T12:09:13.274Z,100789.56
2023-05-23T12:11:39.777Z,100789.00
2023-05-23T12:14:07.755Z,100793.47
2023-05-23T12:16:34.178Z,100783.44
2023-05-23T12:19:00.925Z,100800.06
2023-05-23T12:21:27.255Z,100793.22
2023-05-23T12:23:53.740Z,100806.56
2023-05-23T12:26:20.014Z,100805.53
2023-05-23T12:28:46.270Z,100795.75
2023-05-23T12:31:13.038Z,100825.03
2023-05-23T12:33:39.802Z,100826.13
2023-05-23T12:36:06.416Z,100834.28
2023-05-23T12:38:33.919Z,100810.28
2023-05-23T12:41:15.289Z,100821.78
2023-05-23T12:43:41.626Z,100801.09
2023-05-23T12:46:07.966Z,100800.00
2023-05-23T12:48:34.388Z,100802.66
2023-05-23T12:51:00.642Z,100775.59
2023-05-23T12:53:26.911Z,100777.97
2023-05-23T12:55:53.169Z,100773.53
2023-05-23T12:58:19.442Z,100785.28
2023-05-23T13:00:45.737Z,100783.91
2023-05-23T13:03:12.010Z,100794.06
2023-05-23T13:05:38.755Z,100794.47
2023-05-23T13:08:05.201Z,100801.59
2023-05-23T13:10:32.195Z,100805.91
2023-05-23T13:12:58.703Z,100801.09
2023-05-23T13:15:24.960Z,100787.03
2023-05-23T13:17:51.282Z,100779.06
2023-05-23T13:20:17.555Z,100790.31
2023-05-23T13:22:43.832Z,100780.06
2023-05-23T13:25:10.218Z,100771.22
2023-05-23T13:27:36.485Z,100762.06
2023-05-23T13:30:02.766Z,100764.75
2023-05-23T13:32:29.086Z,100763.69
2023-05-23T13:34:55.378Z,100757.81
2023-05-23T13:37:21.639Z,100744.69
2023-05-23T13:39:47.879Z,100737.28
2023-05-23T13:42:14.136Z,100741.97
2023-05-23T13:44:40.388Z,100746.41
2023-05-23T13:47:12.631Z,100734.34
2023-05-23T13:49:39.555Z,100728.81
2023-05-23T13:52:05.819Z,100731.91
2023-05-23T13:54:32.081Z,100724.03
2023-05-23T13:56:58.632Z,100724.31
2023-05-23T13:59:27.862Z,100722.47
2023-05-23T14:01:54.151Z,100719.06
2023-05-23T14:04:20.421Z,100713.63
2023-05-23T14:06:46.679Z,100698.91
2023-05-23T14:09:13.002Z,100717.94
2023-05-23T14:11:39.259Z,100703.84
2023-05-23T14:14:05.511Z,100690.75
2023-05-23T14:16:32.029Z,100691.88
2023-05-23T14:18:58.422Z,100688.56
2023-05-23T14:21:24.770Z,100672.34
2023-05-23T14:23:51.006Z,100641.44
2023-05-23T14:26:17.283Z,100608.47
2023-05-23T14:28:43.524Z,100576.97
2023-05-23T14:31:09.776Z,100538.97
2023-05-23T14:33:36.096Z,100514.22
2023-05-23T14:36:02.454Z,100449.13
2023-05-23T14:38:28.718Z,100425.50
2023-05-23T14:40:55.053Z,100391.31
2023-05-23T14:43:21.333Z,100297.88
2023-05-23T14:45:47.610Z,100305.13
2023-05-23T14:48:13.983Z,100311.28
2023-05-23T14:50:40.251Z,100234.06
2023-05-23T14:53:08.584Z,100228.19
2023-05-23T14:55:34.838Z,100314.84
2023-05-23T14:58:01.142Z,100348.53
2023-05-23T15:00:27.546Z,100312.47
2023-05-23T15:02:53.850Z,100276.81
2023-05-23T15:05:20.162Z,100310.28
2023-05-23T15:07:46.437Z,100213.81
2023-05-23T15:10:12.708Z,100225.41
2023-05-23T15:12:38.984Z,100181.53
2023-05-23T15:15:05.436Z,100176.56
2023-05-23T15:17:34.531Z,100163.88
2023-05-23T15:20:00.855Z,100186.66
2023-05-23T15:24:58.028Z,100109.31
2023-05-23T15:27:24.291Z,100096.25
2023-05-23T15:29:50.552Z,99998.25
2023-05-23T15:32:17.021Z,100040.19
2023-05-23T15:34:43.370Z,100031.53
2023-05-23T15:37:09.670Z,100086.59
2023-05-23T15:39:35.924Z,100068.75
2023-05-23T15:42:02.175Z,99987.38
2023-05-23T15:44:28.466Z,99917.16
2023-05-23T15:46:54.797Z,99859.78
2023-05-23T15:49:26.567Z,99896.31
2023-05-23T15:51:53.362Z,99938.53
2023-05-23T15:54:19.622Z,99958.47
2023-05-23T15:56:45.884Z,100034.75
2023-05-23T15:59:12.145Z,100075.69
2023-05-23T16:01:38.435Z,100127.88
2023-05-23T16:04:04.754Z,100090.53
2023-05-23T16:06:31.025Z,100166.34
2023-05-23T16:08:57.313Z,100159.38
2023-05-23T16:11:23.576Z,100136.91
2023-05-23T16:13:49.846Z,100144.91
2023-05-23T16:16:23.508Z,100202.09
2023-05-23T16:18:49.819Z,100231.97
2023-05-23T16:21:18.373Z,100091.44
2023-05-23T16:23:44.844Z,100077.41
2023-05-23T16:26:11.125Z,99963.72
2023-05-23T16:28:37.391Z,99947.44
2023-05-23T16:31:03.756Z,100054.72
2023-05-23T16:33:30.061Z,100139.19
2023-05-23T16:35:56.322Z,100235.34
2023-05-23T16:38:22.591Z,100316.69
2023-05-23T16:40:48.870Z,100260.00
2023-05-23T16:43:15.158Z,100196.75
2023-05-23T16:45:42.124Z,100223.41
2023-05-23T16:48:08.614Z,100332.81
2023-05-23T16:50:34.918Z,100364.00
2023-05-23T16:53:01.218Z,100296.03
2023-05-23T16:55:27.476Z,100307.22
2023-05-23T16:57:53.728Z,100217.75
2023-05-23T17:00:20.042Z,100179.34
2023-05-23T17:02:46.569Z,100167.16
2023-05-23T17:05:12.858Z,100119.38
2023-05-23T17:07:39.119Z,100178.03
2023-05-23T17:10:05.558Z,100179.41
2023-05-23T17:12:31.806Z,100208.78
2023-05-23T17:14:58.042Z,100160.59
2023-05-23T17:17:24.310Z,100132.09
2023-05-23T17:19:50.587Z,100215.41
2023-05-23T17:22:16.855Z,100188.22
2023-05-23T17:24:43.106Z,100231.22
2023-05-23T17:27:09.385Z,100270.00
2023-05-23T17:29:35.650Z,100292.31
2023-05-23T17:32:02.027Z,100257.47
2023-05-23T17:34:28.324Z,100287.13
2023-05-23T17:36:54.607Z,100299.16
2023-05-23T17:39:20.852Z,100363.88
2023-05-23T17:41:47.110Z,100364.69
2023-05-23T17:44:13.415Z,100475.28
2023-05-23T17:46:39.787Z,100412.34
2023-05-23T17:49:08.159Z,100347.66
2023-05-23T17:51:35.604Z,100253.06
2023-05-23T17:54:01.859Z,100198.88
2023-05-23T17:56:30.550Z,100180.03
2023-05-23T17:58:56.812Z,100193.91
2023-05-23T18:01:23.605Z,100168.47
2023-05-23T18:03:50.039Z,100091.97
2023-05-23T18:06:16.330Z,100093.09
2023-05-23T18:08:42.601Z,100162.03
2023-05-23T18:11:08.850Z,100260.22
2023-05-23T18:13:35.106Z,100311.53
2023-05-23T18:16:01.348Z,100320.44
2023-05-23T18:18:28.193Z,100375.16
2023-05-23T18:20:54.459Z,100397.66
2023-05-23T18:23:20.928Z,100387.94
2023-05-23T18:25:47.224Z,100453.63
2023-05-23T18:28:13.481Z,100444.75
2023-05-23T18:30:40.061Z,100453.13
2023-05-23T18:33:06.500Z,100510.13
2023-05-23T18:35:32.837Z,100576.41
2023-05-23T18:37:59.154Z,100629.50
2023-05-23T18:40:25.414Z,100649.97
2023-05-23T18:42:51.686Z,100646.31
2023-05-23T18:45:17.968Z,100628.69
2023-05-23T18:47:44.329Z,100567.44
2023-05-23T18:50:10.897Z,100502.00
2023-05-23T18:52:37.173Z,100519.75
2023-05-23T18:55:03.513Z,100497.25
2023-05-23T18:57:29.778Z,100557.38
2023-05-23T18:59:56.118Z,100595.31
2023-05-23T19:02:22.491Z,100557.91
2023-05-23T19:04:48.805Z,100574.31
2023-05-23T19:07:15.054Z,100569.41
2023-05-23T19:09:41.323Z,100510.81
2023-05-23T19:12:07.586Z,100520.16
2023-05-23T19:14:33.857Z,100550.25
2023-05-23T19:17:00.104Z,100514.84
2023-05-23T19:19:28.000Z,100503.09
2023-05-23T19:21:56.303Z,100536.53
2023-05-23T19:24:22.560Z,100578.38
2023-05-23T19:26:48.834Z,100640.34
2023-05-23T19:29:15.145Z,100636.97
2023-05-23T19:31:41.436Z,100666.41
2023-05-23T19:34:07.777Z,100672.72
2023-05-23T19:36:34.039Z,100717.09
2023-05-23T19:39:00.294Z,100752.41
2023-05-23T19:41:26.542Z,100753.78
2023-05-23T19:43:52.796Z,100753.19
2023-05-23T19:46:19.058Z,100773.81
2023-05-23T19:48:45.352Z,100818.72
2023-05-23T19:51:11.613Z,100831.22
2023-05-23T19:53:37.949Z,100838.75
2023-05-23T19:56:04.227Z,100836.44
2023-05-23T19:58:30.501Z,100837.47
2023-05-23T20:00:56.756Z,100829.25
2023-05-23T20:03:23.019Z,100856.38
2023-05-23T20:05:49.282Z,100882.88
2023-05-23T20:08:15.544Z,100900.94
2023-05-23T20:10:42.028Z,100895.97
2023-05-23T20:13:08.508Z,100904.81
2023-05-23T20:15:39.929Z,100896.28
2023-05-23T20:18:06.977Z,100880.69
2023-05-23T20:20:33.265Z,100867.63
2023-05-23T20:22:59.520Z,100867.28
2023-05-23T20:25:25.793Z,100889.09
2023-05-23T20:27:52.064Z,100905.22
2023-05-23T20:30:18.322Z,100921.28
2023-05-23T20:32:44.646Z,100919.78
2023-05-23T20:35:10.957Z,100931.75
2023-05-23T20:37:37.221Z,100940.59
2023-05-23T20:40:03.553Z,100950.34
2023-05-23T20:42:29.836Z,100945.28
2023-05-23T20:44:56.084Z,100935.47
2023-05-23T20:47:22.332Z,100930.88
2023-05-23T20:49:48.595Z,100919.78
2023-05-23T20:52:14.852Z,100915.66
2023-05-23T20:54:41.116Z,100916.25
2023-05-23T20:57:07.371Z,100891.50
2023-05-23T20:59:33.627Z,100901.16
2023-05-23T21:01:59.892Z,100913.75
2023-05-23T21:04:26.161Z,100921.78
2023-05-23T21:06:52.420Z,100897.28
2023-05-23T21:09:18.684Z,100904.91
2023-05-23T21:11:44.920Z,100878.00
2023-05-23T21:14:11.197Z,100866.78
2023-05-23T21:16:37.494Z,100892.00
2023-05-23T21:19:03.770Z,100902.28
2023-05-23T21:21:30.064Z,100888.34
2023-05-23T21:23:56.317Z,100879.47
2023-05-23T21:26:22.574Z,100876.34
2023-05-23T21:28:48.846Z,100855.09
2023-05-23T21:31:16.325Z,100879.47
2023-05-23T21:33:43.484Z,100866.91
2023-05-23T21:36:09.737Z,100859.09
2023-05-23T21:38:35.994Z,100869.13
2023-05-23T21:41:02.247Z,100841.03
2023-05-23T21:43:28.509Z,100823.03
2023-05-23T21:45:54.794Z,100821.72
2023-05-23T21:48:21.087Z,100823.75
2023-05-23T21:50:47.329Z,100837.41
2023-05-23T21:53:13.644Z,100829.06
2023-05-23T21:55:39.886Z,100816.78
2023-05-23T21:58:06.143Z,100826.72
2023-05-23T22:00:32.386Z,100818.09
2023-05-23T22:02:58.725Z,100817.97
2023-05-23T22:05:25.040Z,100841.47
2023-05-23T22:07:51.290Z,100851.69
2023-05-23T22:10:18.043Z,100876.22
2023-05-23T22:12:44.309Z,100895.06
2023-05-23T22:15:10.780Z,100917.22
2023-05-23T22:17:37.072Z,100917.06
2023-05-23T22:20:03.509Z,100926.41
2023-05-23T22:22:29.759Z,100932.59
2023-05-23T22:24:56.009Z,100961.75
2023-05-23T22:27:22.284Z,100968.28
2023-05-23T22:29:48.527Z,100972.84
2023-05-23T22:32:14.782Z,100979.47
2023-05-23T22:34:41.038Z,100982.13
2023-05-23T22:37:07.331Z,100981.34
2023-05-23T22:39:33.622Z,100985.28
2023-05-23T22:41:59.881Z,101009.50
2023-05-23T22:44:26.128Z,101023.53
2023-05-23T22:46:52.444Z,101039.44
2023-05-23T22:49:18.712Z,101038.56
2023-05-23T22:51:44.974Z,101043.06
2023-05-23T22:54:11.237Z,101027.06
2023-05-23T22:56:37.498Z,101037.28
2023-05-23T22:59:03.776Z,101034.44
2023-05-23T23:01:30.125Z,101036.50
2023-05-23T23:03:56.452Z,101043.06
2023-05-23T23:06:22.722Z,101047.75
2023-05-23T23:08:48.987Z,101050.03
2023-05-23T23:11:15.247Z,101040.47
2023-05-23T23:13:41.495Z,101047.50
2023-05-23T23:16:07.751Z,101054.22
2023-05-23T23:18:33.996Z,101067.84
2023-05-23T23:21:00.259Z,101072.72
2023-05-23T23:23:26.520Z,101063.66
2023-05-23T23:25:52.816Z,101047.50
2023-05-23T23:28:19.109Z,101037.84
2023-05-23T23:30:45.722Z,101052.63
2023-05-23T23:33:12.198Z,101057.63
2023-05-23T23:35:38.523Z,101032.44
2023-05-23T23:38:04.789Z,101006.91
2023-05-23T23:40:31.037Z,101017.69
2023-05-23T23:42:57.301Z,101008.25
2023-05-23T23:45:23.598Z,100988.84
2023-05-23T23:47:49.868Z,100958.09
2023-05-23T23:50:16.193Z,100939.56
2023-05-23T23:52:42.458Z,100925.97
2023-05-23T23:55:08.854Z,100939.69
2023-05-23T23:57:35.121Z,100937.22
